createdAt,value
2017-09-03T00:00:21.650Z,97763.16
2017-09-03T00:00:53.508Z,97761.02
2017-09-03T00:01:25.259Z,97767.79
2017-09-03T00:01:57.080Z,97763.58
2017-09-03T00:02:28.659Z,97754.63
2017-09-03T00:03:00.362Z,97761.05
2017-09-03T00:03:32.010Z,97762.31
2017-09-03T00:04:03.612Z,97761.89
2017-09-03T00:04:35.218Z,97762.74
2017-09-03T00:05:06.880Z,97762.34
2017-09-03T00:05:38.899Z,97764.47
2017-09-03T00:06:10.477Z,97767.50
2017-09-03T00:06:42.190Z,97761.48
2017-09-03T00:07:13.918Z,97769.15
2017-09-03T00:07:45.558Z,97764.08
2017-09-03T00:08:17.140Z,97763.67
2017-09-03T00:08:48.842Z,97764.95
2017-09-03T00:09:20.620Z,97770.50
2017-09-03T00:09:52.330Z,97758.59
2017-09-03T00:10:23.961Z,97770.56
2017-09-03T00:10:55.615Z,97766.33
2017-09-03T00:11:27.240Z,97766.38
2017-09-03T00:11:58.809Z,97765.52
2017-09-03T00:12:30.533Z,97765.91
2017-09-03T00:13:02.184Z,97761.70
2017-09-03T00:13:33.802Z,97768.10
2017-09-03T00:14:05.772Z,97764.70
2017-09-03T00:14:37.351Z,97765.13
2017-09-03T00:15:09.056Z,97763.86
2017-09-03T00:15:40.664Z,97768.97
2017-09-03T00:16:12.341Z,97765.18
2017-09-03T00:16:44.005Z,97765.18
2017-09-03T00:17:15.591Z,97760.50
2017-09-03T00:17:47.265Z,97762.20
2017-09-03T00:18:18.849Z,97759.66
2017-09-03T00:18:50.616Z,97759.66
2017-09-03T00:19:22.484Z,97757.52
2017-09-03T00:19:54.142Z,97758.81
2017-09-03T00:20:25.777Z,97757.12
2017-09-03T00:20:57.424Z,97757.54
2017-09-03T00:21:29.054Z,97756.30
2017-09-03T00:22:00.682Z,97752.06
2017-09-03T00:22:32.260Z,97755.89
2017-09-03T00:23:03.846Z,97757.61
2017-09-03T00:23:35.433Z,97761.44
2017-09-03T00:24:07.013Z,97763.58
2017-09-03T00:24:39.238Z,97759.75
2017-09-03T00:25:11.227Z,97763.16
2017-09-03T00:25:42.927Z,97764.44
2017-09-03T00:26:15.362Z,97759.32
2017-09-03T00:26:47.324Z,97758.09
2017-09-03T00:27:18.972Z,97758.05
2017-09-03T00:27:50.612Z,97749.14
2017-09-03T00:28:22.273Z,97761.45
2017-09-03T00:28:54.001Z,97756.39
2017-09-03T00:29:25.640Z,97758.95
2017-09-03T00:29:57.338Z,97759.80
2017-09-03T00:30:29.124Z,97749.16
2017-09-03T00:31:00.773Z,97757.25
2017-09-03T00:31:32.410Z,97751.71
2017-09-03T00:32:04.058Z,97759.37
2017-09-03T00:32:35.642Z,97757.25
2017-09-03T00:33:07.236Z,97757.26
2017-09-03T00:33:39.004Z,97757.26
2017-09-03T00:34:10.633Z,97760.67
2017-09-03T00:34:42.281Z,97759.83
2017-09-03T00:35:13.924Z,97763.66
2017-09-03T00:35:45.652Z,97757.69
2017-09-03T00:36:17.257Z,97765.78
2017-09-03T00:36:49.150Z,97763.66
2017-09-03T00:37:20.754Z,97764.08
2017-09-03T00:37:52.434Z,97767.50
2017-09-03T00:38:24.049Z,97767.55
2017-09-03T00:38:55.664Z,97762.43
2017-09-03T00:39:27.367Z,97761.16
2017-09-03T00:39:59.010Z,97763.72
2017-09-03T00:40:30.593Z,97764.14
2017-09-03T00:41:02.380Z,97762.45
2017-09-03T00:41:34.226Z,97768.82
2017-09-03T00:42:05.882Z,97762.86
2017-09-03T00:42:37.476Z,97765.00
2017-09-03T00:43:09.232Z,97764.58
2017-09-03T00:43:40.940Z,97766.29
2017-09-03T00:44:12.733Z,97761.17
2017-09-03T00:44:44.369Z,97758.20
2017-09-03T00:45:16.031Z,97761.16
2017-09-03T00:45:47.669Z,97763.31
2017-09-03T00:46:19.244Z,97756.92
2017-09-03T00:46:51.364Z,97762.02
2017-09-03T00:47:23.208Z,97763.73
2017-09-03T00:47:54.951Z,97767.56
2017-09-03T00:48:26.560Z,97765.01
2017-09-03T00:48:58.360Z,97766.71
2017-09-03T00:49:30.069Z,97767.56
2017-09-03T00:50:01.714Z,97771.40
2017-09-03T00:50:33.368Z,97768.42
2017-09-03T00:51:05.005Z,97764.59
2017-09-03T00:51:36.636Z,97765.87
2017-09-03T00:52:08.285Z,97764.59
2017-09-03T00:52:39.937Z,97766.69
2017-09-03T00:53:12.501Z,97764.98
2017-09-03T00:53:44.137Z,97758.97
2017-09-03T00:54:15.773Z,97766.20
2017-09-03T00:54:47.367Z,97763.23
2017-09-03T00:55:19.054Z,97758.17
2017-09-03T00:55:50.691Z,97761.59
2017-09-03T00:56:23.687Z,97768.73
2017-09-03T00:56:55.264Z,97765.27
2017-09-03T00:57:26.965Z,97763.49
2017-09-03T00:57:58.794Z,97762.22
2017-09-03T00:58:30.768Z,97763.86
2017-09-03T00:59:02.343Z,97769.39
2017-09-03T00:59:34.088Z,97765.56
2017-09-03T01:00:05.716Z,97768.11
2017-09-03T01:00:37.890Z,97768.59
2017-09-03T01:01:09.578Z,97771.95
2017-09-03T01:01:41.207Z,97766.83
2017-09-03T01:02:12.868Z,97766.45
2017-09-03T01:02:44.508Z,97770.30
2017-09-03T01:03:16.140Z,97770.73
2017-09-03T01:03:47.780Z,97771.59
2017-09-03T01:04:19.338Z,97772.86
2017-09-03T01:04:51.070Z,97767.33
2017-09-03T01:05:22.721Z,97768.17
2017-09-03T01:05:54.359Z,97771.14
2017-09-03T01:06:25.990Z,97769.03
2017-09-03T01:06:57.644Z,97769.88
2017-09-03T01:07:29.333Z,97768.58
2017-09-03T01:08:00.928Z,97767.69
2017-09-03T01:08:32.585Z,97767.69
2017-09-03T01:09:04.314Z,97773.22
2017-09-03T01:09:36.170Z,97774.08
2017-09-03T01:10:07.766Z,97766.88
2017-09-03T01:10:39.432Z,97776.25
2017-09-03T01:11:11.031Z,97778.80
2017-09-03T01:11:42.737Z,97772.42
2017-09-03T01:12:14.333Z,97774.58
2017-09-03T01:12:45.908Z,97770.32
2017-09-03T01:13:17.648Z,97769.02
2017-09-03T01:13:49.321Z,97767.30
2017-09-03T01:14:21.231Z,97774.98
2017-09-03T01:14:52.868Z,97763.06
2017-09-03T01:15:24.458Z,97764.76
2017-09-03T01:15:56.273Z,97764.77
2017-09-03T01:16:28.224Z,97766.47
2017-09-03T01:16:59.802Z,97760.06
2017-09-03T01:17:31.420Z,97758.79
2017-09-03T01:18:03.048Z,97760.02
2017-09-03T01:18:34.690Z,97757.89
2017-09-03T01:19:06.345Z,97751.08
2017-09-03T01:19:37.970Z,97762.58
2017-09-03T01:20:09.552Z,97758.73
2017-09-03T01:20:41.523Z,97758.72
2017-09-03T01:21:13.210Z,97754.48
2017-09-03T01:21:45.391Z,97757.45
2017-09-03T01:22:17.099Z,97755.74
2017-09-03T01:22:49.458Z,97753.63
2017-09-03T01:23:21.321Z,97747.70
2017-09-03T01:23:52.947Z,97747.70
2017-09-03T01:24:24.585Z,97751.13
2017-09-03T01:24:56.241Z,97753.24
2017-09-03T01:25:27.864Z,97750.64
2017-09-03T01:25:59.523Z,97748.93
2017-09-03T01:26:31.116Z,97753.17
2017-09-03T01:27:02.813Z,97754.89
2017-09-03T01:27:34.656Z,97750.63
2017-09-03T01:28:06.383Z,97748.02
2017-09-03T01:28:37.961Z,97748.91
2017-09-03T01:29:09.653Z,97747.58
2017-09-03T01:29:41.305Z,97747.63
2017-09-03T01:30:12.936Z,97743.80
2017-09-03T01:30:44.621Z,97748.91
2017-09-03T01:31:16.963Z,97747.63
2017-09-03T01:31:49.123Z,97743.32
2017-09-03T01:32:21.166Z,97747.63
2017-09-03T01:32:53.310Z,97745.08
2017-09-03T01:33:24.951Z,97745.06
2017-09-03T01:33:56.571Z,97745.50
2017-09-03T01:34:28.259Z,97740.41
2017-09-03T01:35:00.849Z,97745.11
2017-09-03T01:35:33.053Z,97745.50
2017-09-03T01:36:04.619Z,97747.63
2017-09-03T01:36:36.328Z,97748.86
2017-09-03T01:37:08.499Z,97747.63
2017-09-03T01:37:40.821Z,97745.52
2017-09-03T01:38:12.607Z,97745.08
2017-09-03T01:38:44.451Z,97744.17
2017-09-03T01:39:16.404Z,97751.45
2017-09-03T01:39:48.384Z,97747.16
2017-09-03T01:40:19.977Z,97748.44
2017-09-03T01:40:51.999Z,97742.51
2017-09-03T01:41:23.586Z,97748.02
2017-09-03T01:41:55.271Z,97747.20
2017-09-03T01:42:26.969Z,97743.81
2017-09-03T01:42:58.800Z,97744.25
2017-09-03T01:43:30.388Z,97744.25
2017-09-03T01:44:02.097Z,97741.69
2017-09-03T01:44:33.719Z,97743.39
2017-09-03T01:45:06.157Z,97746.78
2017-09-03T01:45:37.924Z,97745.52
2017-09-03T01:46:09.629Z,97752.36
2017-09-03T01:46:41.521Z,97748.56
2017-09-03T01:47:13.281Z,97745.15
2017-09-03T01:47:44.858Z,97748.14
2017-09-03T01:48:16.766Z,97741.75
2017-09-03T01:48:48.388Z,97744.73
2017-09-03T01:49:21.387Z,97745.95
2017-09-03T01:49:53.952Z,97740.84
2017-09-03T01:50:26.514Z,97741.73
2017-09-03T01:50:59.077Z,97742.97
2017-09-03T01:51:30.716Z,97745.94
2017-09-03T01:52:02.879Z,97742.97
2017-09-03T01:52:34.533Z,97739.99
2017-09-03T01:53:06.562Z,97748.52
2017-09-03T01:53:38.380Z,97747.23
2017-09-03T01:54:10.050Z,97744.30
2017-09-03T01:54:41.619Z,97742.19
2017-09-03T01:55:13.181Z,97745.16
2017-09-03T01:55:45.014Z,97751.13
2017-09-03T01:56:16.613Z,97742.19
2017-09-03T01:56:48.258Z,97748.64
2017-09-03T01:57:19.824Z,97749.49
2017-09-03T01:57:51.531Z,97752.05
2017-09-03T01:58:23.101Z,97747.75
2017-09-03T01:58:54.819Z,97746.47
2017-09-03T01:59:26.787Z,97747.36
2017-09-03T01:59:58.413Z,97755.84
2017-09-03T02:00:30.101Z,97752.47
2017-09-03T02:01:01.667Z,97749.09
2017-09-03T02:01:33.252Z,97749.07
2017-09-03T02:02:04.989Z,97745.61
2017-09-03T02:02:36.623Z,97749.45
2017-09-03T02:03:08.271Z,97745.95
2017-09-03T02:03:39.850Z,97748.50
2017-09-03T02:04:11.545Z,97750.19
2017-09-03T02:04:43.190Z,97742.10
2017-09-03T02:05:14.757Z,97744.23
2017-09-03T02:05:46.467Z,97743.41
2017-09-03T02:06:18.136Z,97751.08
2017-09-03T02:06:49.765Z,97747.30
2017-09-03T02:07:21.400Z,97746.08
2017-09-03T02:07:52.989Z,97751.20
2017-09-03T02:08:24.552Z,97746.08
2017-09-03T02:08:56.129Z,97758.86
2017-09-03T02:09:27.826Z,97749.07
2017-09-03T02:09:59.644Z,97749.92
2017-09-03T02:10:31.224Z,97751.66
2017-09-03T02:11:02.922Z,97751.28
2017-09-03T02:11:34.526Z,97747.47
2017-09-03T02:12:06.132Z,97756.39
2017-09-03T02:12:38.124Z,97752.98
2017-09-03T02:13:09.796Z,97756.85
2017-09-03T02:13:41.518Z,97751.34
2017-09-03T02:14:13.118Z,97756.04
2017-09-03T02:14:44.728Z,97752.58
2017-09-03T02:15:16.368Z,97756.41
2017-09-03T02:15:47.994Z,97756.48
2017-09-03T02:16:20.447Z,97754.77
2017-09-03T02:16:52.181Z,97756.89
2017-09-03T02:17:23.825Z,97759.83
2017-09-03T02:17:55.460Z,97761.11
2017-09-03T02:18:27.031Z,97753.42
2017-09-03T02:18:58.749Z,97753.84
2017-09-03T02:19:30.400Z,97756.41
2017-09-03T02:20:01.984Z,97754.28
2017-09-03T02:20:33.550Z,97750.87
2017-09-03T02:21:05.134Z,97750.87
2017-09-03T02:21:36.962Z,97754.27
2017-09-03T02:22:08.608Z,97758.12
2017-09-03T02:22:40.237Z,97757.25
2017-09-03T02:23:11.894Z,97752.55
2017-09-03T02:23:43.485Z,97755.53
2017-09-03T02:24:15.180Z,97758.52
2017-09-03T02:24:47.113Z,97752.98
2017-09-03T02:25:18.779Z,97753.84
2017-09-03T02:25:50.421Z,97757.68
2017-09-03T02:26:22.159Z,97751.34
2017-09-03T02:26:53.732Z,97747.95
2017-09-03T02:27:25.341Z,97755.99
2017-09-03T02:27:56.961Z,97754.30
2017-09-03T02:28:28.608Z,97757.27
2017-09-03T02:29:00.367Z,97750.50
2017-09-03T02:29:32.140Z,97756.85
2017-09-03T02:30:03.835Z,97761.59
2017-09-03T02:30:35.592Z,97751.36
2017-09-03T02:31:07.444Z,97755.63
2017-09-03T02:31:39.021Z,97753.08
2017-09-03T02:32:10.732Z,97748.83
2017-09-03T02:32:42.384Z,97753.50
2017-09-03T02:33:14.013Z,97749.23
2017-09-03T02:33:45.757Z,97754.34
2017-09-03T02:34:17.346Z,97748.38
2017-09-03T02:34:48.980Z,97749.67
2017-09-03T02:35:20.599Z,97753.09
2017-09-03T02:35:52.207Z,97750.11
2017-09-03T02:36:23.853Z,97749.25
2017-09-03T02:36:55.493Z,97744.19
2017-09-03T02:37:27.072Z,97746.32
2017-09-03T02:37:58.794Z,97748.45
2017-09-03T02:38:30.436Z,97748.83
2017-09-03T02:39:02.179Z,97744.13
2017-09-03T02:39:34.028Z,97748.39
2017-09-03T02:40:06.229Z,97748.80
2017-09-03T02:40:37.790Z,97744.56
2017-09-03T02:41:09.549Z,97744.19
2017-09-03T02:41:41.210Z,97742.86
2017-09-03T02:42:12.844Z,97739.03
2017-09-03T02:42:44.500Z,97740.79
2017-09-03T02:43:16.179Z,97745.00
2017-09-03T02:43:47.875Z,97738.23
2017-09-03T02:44:19.721Z,97741.22
2017-09-03T02:44:51.305Z,97739.89
2017-09-03T02:45:23.020Z,97733.50
2017-09-03T02:45:54.599Z,97732.27
2017-09-03T02:46:26.290Z,97741.22
2017-09-03T02:46:57.855Z,97730.14
2017-09-03T02:47:29.442Z,97733.54
2017-09-03T02:48:01.216Z,97737.33
2017-09-03T02:48:32.838Z,97733.91
2017-09-03T02:49:04.425Z,97730.94
2017-09-03T02:49:36.138Z,97734.34
2017-09-03T02:50:07.799Z,97734.81
2017-09-03T02:50:39.403Z,97739.46
2017-09-03T02:51:11.079Z,97739.89
2017-09-03T02:51:42.659Z,97736.89
2017-09-03T02:52:14.332Z,97738.17
2017-09-03T02:52:45.996Z,97739.03
2017-09-03T02:53:17.634Z,97734.75
2017-09-03T02:53:49.200Z,97739.00
2017-09-03T02:54:20.777Z,97736.89
2017-09-03T02:54:52.397Z,97731.78
2017-09-03T02:55:24.195Z,97734.34
2017-09-03T02:55:55.860Z,97733.07
2017-09-03T02:56:27.464Z,97732.70
2017-09-03T02:56:59.234Z,97736.97
2017-09-03T02:57:30.876Z,97732.22
2017-09-03T02:58:02.705Z,97733.45
2017-09-03T02:58:34.347Z,97734.73
2017-09-03T02:59:05.938Z,97735.55
2017-09-03T02:59:37.513Z,97732.54
2017-09-03T03:00:09.290Z,97727.86
2017-09-03T03:00:41.565Z,97732.53
2017-09-03T03:01:14.002Z,97732.48
2017-09-03T03:01:45.688Z,97738.00
2017-09-03T03:02:17.382Z,97733.77
2017-09-03T03:02:49.025Z,97726.94
2017-09-03T03:03:20.665Z,97733.31
2017-09-03T03:03:52.295Z,97735.39
2017-09-03T03:04:23.963Z,97733.31
2017-09-03T03:04:55.612Z,97726.50
2017-09-03T03:05:27.240Z,97737.99
2017-09-03T03:05:58.834Z,97735.87
2017-09-03T03:06:30.519Z,97736.31
2017-09-03T03:07:02.400Z,97730.39
2017-09-03T03:07:34.104Z,97732.54
2017-09-03T03:08:05.740Z,97730.42
2017-09-03T03:08:37.401Z,97731.29
2017-09-03T03:09:08.988Z,97728.70
2017-09-03T03:09:40.785Z,97729.98
2017-09-03T03:10:12.639Z,97736.78
2017-09-03T03:10:44.279Z,97731.69
2017-09-03T03:11:15.933Z,97725.74
2017-09-03T03:11:47.548Z,97729.98
2017-09-03T03:12:19.110Z,97724.44
2017-09-03T03:12:50.833Z,97725.23
2017-09-03T03:13:22.483Z,97720.53
2017-09-03T03:13:54.120Z,97721.39
2017-09-03T03:14:26.341Z,97720.13
2017-09-03T03:14:57.956Z,97721.87
2017-09-03T03:15:29.682Z,97723.16
2017-09-03T03:16:01.317Z,97718.47
2017-09-03T03:16:32.872Z,97715.06
2017-09-03T03:17:04.587Z,97709.53
2017-09-03T03:17:36.216Z,97721.89
2017-09-03T03:18:07.802Z,97722.33
2017-09-03T03:18:39.505Z,97714.66
2017-09-03T03:19:11.158Z,97714.65
2017-09-03T03:19:42.904Z,97712.94
2017-09-03T03:20:14.729Z,97709.61
2017-09-03T03:20:46.405Z,97714.73
2017-09-03T03:21:18.138Z,97713.91
2017-09-03T03:21:49.970Z,97714.80
2017-09-03T03:22:21.614Z,97716.09
2017-09-03T03:22:53.262Z,97717.86
2017-09-03T03:23:24.840Z,97714.44
2017-09-03T03:23:56.551Z,97715.72
2017-09-03T03:24:28.168Z,97713.16
2017-09-03T03:24:59.823Z,97709.72
2017-09-03T03:25:31.464Z,97716.51
2017-09-03T03:26:03.116Z,97716.09
2017-09-03T03:26:34.800Z,97714.87
2017-09-03T03:27:06.420Z,97713.63
2017-09-03T03:27:38.029Z,97713.20
2017-09-03T03:28:09.714Z,97717.09
2017-09-03T03:28:41.332Z,97715.80
2017-09-03T03:29:12.977Z,97708.09
2017-09-03T03:29:44.553Z,97710.64
2017-09-03T03:30:16.154Z,97711.91
2017-09-03T03:30:47.717Z,97712.32
2017-09-03T03:31:19.538Z,97709.78
2017-09-03T03:31:51.178Z,97713.19
2017-09-03T03:32:22.924Z,97712.77
2017-09-03T03:32:54.724Z,97709.84
2017-09-03T03:33:26.396Z,97709.84
2017-09-03T03:33:58.031Z,97706.00
2017-09-03T03:34:29.701Z,97711.12
2017-09-03T03:35:01.364Z,97705.17
2017-09-03T03:35:32.942Z,97711.14
2017-09-03T03:36:04.517Z,97708.16
2017-09-03T03:36:36.283Z,97708.16
2017-09-03T03:37:07.895Z,97707.79
2017-09-03T03:37:39.560Z,97704.73
2017-09-03T03:38:11.176Z,97704.73
2017-09-03T03:38:42.934Z,97708.08
2017-09-03T03:39:14.498Z,97706.39
2017-09-03T03:39:46.109Z,97705.53
2017-09-03T03:40:17.688Z,97707.28
2017-09-03T03:40:49.251Z,97706.44
2017-09-03T03:41:21.039Z,97713.20
2017-09-03T03:41:52.668Z,97705.96
2017-09-03T03:42:24.622Z,97708.16
2017-09-03T03:42:56.206Z,97718.36
2017-09-03T03:43:27.897Z,97705.58
2017-09-03T03:43:59.563Z,97712.39
2017-09-03T03:44:31.203Z,97711.92
2017-09-03T03:45:02.840Z,97708.08
2017-09-03T03:45:34.460Z,97708.92
2017-09-03T03:46:06.108Z,97707.66
2017-09-03T03:46:37.767Z,97705.53
2017-09-03T03:47:09.409Z,97707.30
2017-09-03T03:47:41.316Z,97707.28
2017-09-03T03:48:12.982Z,97703.41
2017-09-03T03:48:44.642Z,97701.70
2017-09-03T03:49:16.314Z,97700.89
2017-09-03T03:49:47.944Z,97700.42
2017-09-03T03:50:19.510Z,97699.13
2017-09-03T03:50:51.219Z,97697.45
2017-09-03T03:51:22.851Z,97702.11
2017-09-03T03:51:54.498Z,97698.71
2017-09-03T03:52:26.122Z,97696.16
2017-09-03T03:52:57.786Z,97701.27
2017-09-03T03:53:29.357Z,97706.37
2017-09-03T03:54:00.929Z,97705.09
2017-09-03T03:54:32.652Z,97700.00
2017-09-03T03:55:04.332Z,97703.88
2017-09-03T03:55:35.983Z,97699.64
2017-09-03T03:56:07.615Z,97700.48
2017-09-03T03:56:39.272Z,97701.34
2017-09-03T03:57:10.864Z,97697.08
2017-09-03T03:57:42.541Z,97693.22
2017-09-03T03:58:14.197Z,97704.25
2017-09-03T03:58:45.847Z,97698.71
2017-09-03T03:59:17.756Z,97697.86
2017-09-03T03:59:49.391Z,97701.69
2017-09-03T04:00:21.072Z,97702.98
2017-09-03T04:00:52.645Z,97700.91
2017-09-03T04:01:24.335Z,97701.33
2017-09-03T04:01:55.999Z,97700.48
2017-09-03T04:02:27.589Z,97695.87
2017-09-03T04:02:59.295Z,97701.79
2017-09-03T04:03:30.865Z,97699.22
2017-09-03T04:04:02.426Z,97695.80
2017-09-03T04:04:34.206Z,97697.09
2017-09-03T04:05:05.830Z,97695.81
2017-09-03T04:05:37.466Z,97694.95
2017-09-03T04:06:09.123Z,97697.08
2017-09-03T04:06:40.714Z,97695.80
2017-09-03T04:07:12.299Z,97692.83
2017-09-03T04:07:43.890Z,97692.83
2017-09-03T04:08:15.681Z,97694.11
2017-09-03T04:08:47.336Z,97697.94
2017-09-03T04:09:18.969Z,97697.52
2017-09-03T04:09:50.629Z,97693.27
2017-09-03T04:10:22.187Z,97693.27
2017-09-03T04:10:53.896Z,97690.28
2017-09-03T04:11:25.567Z,97691.97
2017-09-03T04:11:57.177Z,97691.97
2017-09-03T04:12:28.825Z,97689.48
2017-09-03T04:13:00.487Z,97691.55
2017-09-03T04:13:32.114Z,97687.30
2017-09-03T04:14:03.761Z,97688.58
2017-09-03T04:14:35.401Z,97690.28
2017-09-03T04:15:07.308Z,97691.55
2017-09-03T04:15:38.898Z,97691.13
2017-09-03T04:16:10.625Z,97694.11
2017-09-03T04:16:42.268Z,97697.50
2017-09-03T04:17:13.868Z,97696.66
2017-09-03T04:17:45.551Z,97690.29
2017-09-03T04:18:17.188Z,97696.30
2017-09-03T04:18:48.835Z,97692.05
2017-09-03T04:19:20.473Z,97692.06
2017-09-03T04:19:52.132Z,97695.88
2017-09-03T04:20:23.784Z,97694.60
2017-09-03T04:20:55.391Z,97689.94
2017-09-03T04:21:27.056Z,97694.61
2017-09-03T04:21:58.678Z,97692.06
2017-09-03T04:22:30.618Z,97692.06
2017-09-03T04:23:02.312Z,97694.20
2017-09-03T04:23:34.033Z,97692.50
2017-09-03T04:24:05.647Z,97690.83
2017-09-03T04:24:37.547Z,97691.27
2017-09-03T04:25:09.155Z,97699.35
2017-09-03T04:25:40.728Z,97701.06
2017-09-03T04:26:12.716Z,97695.11
2017-09-03T04:26:44.323Z,97692.13
2017-09-03T04:27:16.056Z,97692.97
2017-09-03T04:27:47.673Z,97696.81
2017-09-03T04:28:19.305Z,97690.84
2017-09-03T04:28:50.949Z,97690.42
2017-09-03T04:29:22.595Z,97689.56
2017-09-03T04:29:54.248Z,97687.44
2017-09-03T04:30:25.813Z,97688.30
2017-09-03T04:30:57.531Z,97687.44
2017-09-03T04:31:29.174Z,97691.28
2017-09-03T04:32:00.818Z,97692.13
2017-09-03T04:32:32.877Z,97695.12
2017-09-03T04:33:04.477Z,97691.71
2017-09-03T04:33:36.353Z,97696.39
2017-09-03T04:34:08.269Z,97696.39
2017-09-03T04:34:39.853Z,97694.25
2017-09-03T04:35:11.582Z,97702.78
2017-09-03T04:35:43.227Z,97693.05
2017-09-03T04:36:14.862Z,97694.33
2017-09-03T04:36:46.492Z,97695.12
2017-09-03T04:37:18.098Z,97696.88
2017-09-03T04:37:49.782Z,97692.64
2017-09-03T04:38:21.713Z,97693.08
2017-09-03T04:38:53.488Z,97694.34
2017-09-03T04:39:25.362Z,97701.16
2017-09-03T04:39:56.972Z,97696.95
2017-09-03T04:40:28.627Z,97698.66
2017-09-03T04:41:00.254Z,97694.78
2017-09-03T04:41:31.903Z,97696.06
2017-09-03T04:42:03.552Z,97700.31
2017-09-03T04:42:35.426Z,97694.41
2017-09-03T04:43:07.130Z,97698.24
2017-09-03T04:43:38.771Z,97698.23
2017-09-03T04:44:10.530Z,97701.17
2017-09-03T04:44:42.366Z,97699.52
2017-09-03T04:45:14.000Z,97699.94
2017-09-03T04:45:45.906Z,97700.36
2017-09-03T04:46:17.596Z,97699.94
2017-09-03T04:46:49.241Z,97700.38
2017-09-03T04:47:20.900Z,97704.21
2017-09-03T04:47:52.530Z,97701.22
2017-09-03T04:48:24.146Z,97701.22
2017-09-03T04:48:55.813Z,97704.63
2017-09-03T04:49:27.462Z,97704.64
2017-09-03T04:49:59.048Z,97700.38
2017-09-03T04:50:30.733Z,97705.06
2017-09-03T04:51:02.413Z,97694.84
2017-09-03T04:51:33.990Z,97697.82
2017-09-03T04:52:05.666Z,97705.06
2017-09-03T04:52:37.312Z,97703.80
2017-09-03T04:53:08.947Z,97699.16
2017-09-03T04:53:40.588Z,97702.57
2017-09-03T04:54:12.210Z,97702.52
2017-09-03T04:54:43.859Z,97698.73
2017-09-03T04:55:15.509Z,97708.48
2017-09-03T04:55:47.089Z,97699.55
2017-09-03T04:56:18.899Z,97706.83
2017-09-03T04:56:50.607Z,97706.40
2017-09-03T04:57:22.186Z,97697.88
2017-09-03T04:57:53.963Z,97703.80
2017-09-03T04:58:25.675Z,97705.06
2017-09-03T04:58:57.588Z,97699.09
2017-09-03T04:59:29.506Z,97704.15
2017-09-03T05:00:01.077Z,97698.24
2017-09-03T05:00:32.867Z,97698.27
2017-09-03T05:01:04.432Z,97702.98
2017-09-03T05:01:36.120Z,97699.55
2017-09-03T05:02:07.687Z,97699.97
2017-09-03T05:02:39.256Z,97700.02
2017-09-03T05:03:11.052Z,97703.42
2017-09-03T05:03:42.613Z,97705.99
2017-09-03T05:04:14.191Z,97700.88
2017-09-03T05:04:46.253Z,97704.72
2017-09-03T05:05:17.944Z,97706.84
2017-09-03T05:05:49.547Z,97702.59
2017-09-03T05:06:21.226Z,97703.88
2017-09-03T05:06:52.972Z,97704.73
2017-09-03T05:07:24.828Z,97703.00
2017-09-03T05:07:56.419Z,97706.83
2017-09-03T05:08:28.088Z,97704.70
2017-09-03T05:08:59.754Z,97702.09
2017-09-03T05:09:31.363Z,97702.92
2017-09-03T05:10:03.023Z,97703.35
2017-09-03T05:10:34.635Z,97706.33
2017-09-03T05:11:06.305Z,97705.42
2017-09-03T05:11:38.225Z,97704.21
2017-09-03T05:12:09.900Z,97710.61
2017-09-03T05:12:41.648Z,97703.84
2017-09-03T05:13:13.485Z,97711.09
2017-09-03T05:13:45.123Z,97709.38
2017-09-03T05:14:16.761Z,97708.91
2017-09-03T05:14:48.416Z,97711.02
2017-09-03T05:15:20.078Z,97705.01
2017-09-03T05:15:51.698Z,97715.64
2017-09-03T05:16:23.297Z,97711.81
2017-09-03T05:16:54.859Z,97711.81
2017-09-03T05:17:26.728Z,97711.01
2017-09-03T05:17:58.807Z,97715.22
2017-09-03T05:18:30.624Z,97713.08
2017-09-03T05:19:02.487Z,97710.54
2017-09-03T05:19:34.134Z,97713.92
2017-09-03T05:20:05.771Z,97713.94
2017-09-03T05:20:37.366Z,97719.47
2017-09-03T05:21:09.041Z,97712.66
2017-09-03T05:21:40.678Z,97717.34
2017-09-03T05:22:12.314Z,97710.11
2017-09-03T05:22:43.934Z,97704.15
2017-09-03T05:23:15.521Z,97717.34
2017-09-03T05:23:47.237Z,97716.07
2017-09-03T05:24:18.902Z,97714.84
2017-09-03T05:24:50.532Z,97710.54
2017-09-03T05:25:22.137Z,97713.06
2017-09-03T05:25:53.830Z,97712.65
2017-09-03T05:26:25.401Z,97708.81
2017-09-03T05:26:57.986Z,97707.11
2017-09-03T05:27:29.697Z,97708.83
2017-09-03T05:28:01.483Z,97712.72
2017-09-03T05:28:33.252Z,97716.97
2017-09-03T05:29:04.883Z,97716.98
2017-09-03T05:29:36.538Z,97716.16
2017-09-03T05:30:08.179Z,97717.05
2017-09-03T05:30:39.765Z,97714.92
2017-09-03T05:31:11.446Z,97723.82
2017-09-03T05:31:43.120Z,97715.77
2017-09-03T05:32:14.741Z,97717.44
2017-09-03T05:32:46.385Z,97717.44
2017-09-03T05:33:17.988Z,97719.98
2017-09-03T05:33:49.677Z,97719.12
2017-09-03T05:34:21.310Z,97717.42
2017-09-03T05:34:52.962Z,97724.66
2017-09-03T05:35:24.545Z,97723.81
2017-09-03T05:35:56.236Z,97726.35
2017-09-03T05:36:27.990Z,97722.94
2017-09-03T05:36:59.833Z,97722.50
2017-09-03T05:37:31.471Z,97723.80
2017-09-03T05:38:03.116Z,97721.23
2017-09-03T05:38:34.867Z,97719.97
2017-09-03T05:39:07.517Z,97719.55
2017-09-03T05:39:39.298Z,97713.22
2017-09-03T05:40:11.015Z,97729.82
2017-09-03T05:40:42.883Z,97719.98
2017-09-03T05:41:14.465Z,97716.21
2017-09-03T05:41:46.061Z,97728.98
2017-09-03T05:42:17.792Z,97726.86
2017-09-03T05:42:49.453Z,97727.71
2017-09-03T05:43:21.058Z,97722.59
2017-09-03T05:43:52.724Z,97725.98
2017-09-03T05:44:24.365Z,97720.41
2017-09-03T05:44:56.017Z,97722.97
2017-09-03T05:45:27.637Z,97726.38
2017-09-03T05:45:59.306Z,97721.27
2017-09-03T05:46:31.026Z,97721.25
2017-09-03T05:47:02.868Z,97718.69
2017-09-03T05:47:34.448Z,97722.04
2017-09-03T05:48:06.181Z,97722.45
2017-09-03T05:48:37.766Z,97726.69
2017-09-03T05:49:09.733Z,97722.44
2017-09-03T05:49:41.328Z,97726.27
2017-09-03T05:50:13.048Z,97724.55
2017-09-03T05:50:44.672Z,97728.78
2017-09-03T05:51:16.322Z,97725.77
2017-09-03T05:51:47.970Z,97727.39
2017-09-03T05:52:19.702Z,97727.00
2017-09-03T05:52:51.551Z,97725.34
2017-09-03T05:53:23.155Z,97727.46
2017-09-03T05:53:54.838Z,97729.17
2017-09-03T05:54:26.765Z,97730.89
2017-09-03T05:54:58.401Z,97726.21
2017-09-03T05:55:30.021Z,97720.67
2017-09-03T05:56:01.629Z,97726.62
2017-09-03T05:56:33.350Z,97725.72
2017-09-03T05:57:04.925Z,97727.41
2017-09-03T05:57:36.629Z,97728.25
2017-09-03T05:58:08.284Z,97729.05
2017-09-03T05:58:39.866Z,97728.54
2017-09-03T05:59:11.560Z,97722.16
2017-09-03T05:59:43.303Z,97724.26
2017-09-03T06:00:15.202Z,97721.20
2017-09-03T06:00:46.793Z,97726.69
2017-09-03T06:01:18.404Z,97721.99
2017-09-03T06:01:50.025Z,97721.99
2017-09-03T06:02:21.820Z,97727.22
2017-09-03T06:02:53.672Z,97721.72
2017-09-03T06:03:25.314Z,97726.84
2017-09-03T06:03:56.930Z,97722.98
2017-09-03T06:04:28.577Z,97724.55
2017-09-03T06:05:00.335Z,97724.17
2017-09-03T06:05:31.935Z,97726.32
2017-09-03T06:06:04.240Z,97723.41
2017-09-03T06:06:36.089Z,97727.33
2017-09-03T06:07:08.001Z,97725.77
2017-09-03T06:07:39.703Z,97723.67
2017-09-03T06:08:11.418Z,97722.87
2017-09-03T06:08:43.057Z,97728.91
2017-09-03T06:09:14.653Z,97722.97
2017-09-03T06:09:47.350Z,97719.17
2017-09-03T06:10:19.122Z,97723.05
2017-09-03T06:10:50.854Z,97721.37
2017-09-03T06:11:22.711Z,97719.27
2017-09-03T06:11:54.376Z,97726.95
2017-09-03T06:12:26.272Z,97720.14